createdAt,value
2022-12-08T00:00:25.217Z,61.79
2022-12-08T00:01:25.220Z,60.26
2022-12-08T00:02:25.362Z,64.26
2022-12-08T00:03:25.332Z,60.90
2022-12-08T00:04:25.201Z,60.32
2022-12-08T00:05:25.203Z,60.85
2022-12-08T00:06:25.196Z,62.81
2022-12-08T00:07:25.191Z,62.39
2022-12-08T00:08:25.279Z,61.80
2022-12-08T00:09:25.219Z,61.71
2022-12-08T00:10:48.472Z,60.09
2022-12-08T00:11:26.173Z,61.34
2022-12-08T00:12:25.157Z,63.67
2022-12-08T00:13:25.161Z,62.89
2022-12-08T00:14:25.154Z,62.88
2022-12-08T00:15:25.176Z,63.20
2022-12-08T00:16:25.199Z,61.88
2022-12-08T00:17:25.137Z,58.59
2022-12-08T00:18:25.136Z,64.58
2022-12-08T00:19:25.129Z,63.37
2022-12-08T00:20:25.133Z,62.58
2022-12-08T00:21:25.157Z,61.46
2022-12-08T00:22:25.101Z,59.59
2022-12-08T00:23:25.104Z,57.27
2022-12-08T00:24:25.092Z,62.10
2022-12-08T00:25:25.099Z,61.65
2022-12-08T00:26:25.088Z,63.65
2022-12-08T00:27:25.071Z,64.13
2022-12-08T00:28:25.064Z,62.92
2022-12-08T00:29:25.076Z,63.88
2022-12-08T00:30:25.069Z,60.98
2022-12-08T00:31:25.097Z,60.13
2022-12-08T00:32:25.066Z,61.84
2022-12-08T00:33:25.058Z,61.24
2022-12-08T00:34:25.032Z,61.59
2022-12-08T00:35:25.020Z,63.66
2022-12-08T00:36:25.020Z,61.93
2022-12-08T00:37:25.032Z,62.28
2022-12-08T00:38:25.007Z,62.44
2022-12-08T00:39:25.005Z,61.74
2022-12-08T00:40:25.003Z,61.16
2022-12-08T00:41:24.989Z,63.36
2022-12-08T00:42:24.977Z,61.67
2022-12-08T00:43:24.995Z,61.32
2022-12-08T00:44:24.975Z,61.93
2022-12-08T00:45:24.958Z,62.07
2022-12-08T00:46:24.996Z,63.24
2022-12-08T00:47:25.244Z,59.79
2022-12-08T00:48:24.967Z,63.00
2022-12-08T00:49:24.945Z,62.07
2022-12-08T00:50:24.931Z,60.75
2022-12-08T00:51:24.946Z,57.43
2022-12-08T00:52:24.924Z,59.71
2022-12-08T00:53:24.916Z,59.94
2022-12-08T00:54:24.936Z,60.53
2022-12-08T00:55:24.905Z,61.10
2022-12-08T00:56:24.906Z,63.85
2022-12-08T00:57:24.896Z,60.77
2022-12-08T00:58:24.883Z,63.78
2022-12-08T00:59:24.910Z,64.18
2022-12-08T01:00:24.881Z,62.06
2022-12-08T01:01:24.960Z,59.89
2022-12-08T01:02:24.887Z,61.39
2022-12-08T01:03:24.957Z,61.50
2022-12-08T01:04:24.865Z,64.10
2022-12-08T01:05:24.866Z,63.50
2022-12-08T01:06:24.857Z,60.85
2022-12-08T01:07:24.843Z,58.66
2022-12-08T01:08:24.881Z,57.80
2022-12-08T01:09:24.833Z,59.98
2022-12-08T01:10:24.846Z,62.90
2022-12-08T01:11:24.849Z,60.62
2022-12-08T01:12:24.800Z,62.98
2022-12-08T01:13:24.808Z,63.58
2022-12-08T01:14:24.801Z,63.38
2022-12-08T01:15:24.799Z,62.44
2022-12-08T01:16:24.858Z,64.36
2022-12-08T01:17:31.828Z,65.04
2022-12-08T01:18:24.770Z,62.71
2022-12-08T01:19:24.790Z,60.11
2022-12-08T01:20:24.765Z,63.75
2022-12-08T01:21:24.758Z,60.77
2022-12-08T01:22:24.752Z,62.20
2022-12-08T01:23:24.745Z,62.32
2022-12-08T01:24:24.740Z,63.09
2022-12-08T01:25:24.742Z,62.59
2022-12-08T01:26:24.738Z,64.09
2022-12-08T01:27:24.717Z,59.94
2022-12-08T01:28:24.734Z,61.67
2022-12-08T01:29:24.710Z,63.13
2022-12-08T01:30:24.754Z,63.87
2022-12-08T01:31:24.722Z,60.40
2022-12-08T01:32:24.679Z,59.04
2022-12-08T01:33:24.700Z,61.93
2022-12-08T01:34:24.699Z,59.79
2022-12-08T01:35:24.679Z,64.32
2022-12-08T01:36:24.674Z,60.85
2022-12-08T01:37:24.657Z,58.83
2022-12-08T01:38:24.645Z,63.82
2022-12-08T01:39:24.638Z,61.78
2022-12-08T01:40:24.692Z,61.18
2022-12-08T01:41:24.646Z,60.25
2022-12-08T01:42:24.626Z,61.91
2022-12-08T01:43:24.635Z,59.72
2022-12-08T01:44:24.612Z,64.10
2022-12-08T01:45:24.610Z,60.30
2022-12-08T01:46:24.660Z,61.20
2022-12-08T01:47:24.642Z,61.91
2022-12-08T01:48:24.671Z,58.69
2022-12-08T01:49:24.586Z,61.94
2022-12-08T01:50:24.580Z,62.17
2022-12-08T01:51:24.580Z,63.64
2022-12-08T01:52:24.569Z,64.38
2022-12-08T01:53:24.585Z,57.39
2022-12-08T01:54:24.573Z,59.41
2022-12-08T01:55:24.545Z,61.18
2022-12-08T01:56:24.546Z,63.10
2022-12-08T01:57:24.549Z,60.46
2022-12-08T01:58:24.547Z,61.69
2022-12-08T01:59:24.558Z,64.22
2022-12-08T02:00:24.543Z,60.56
2022-12-08T02:01:24.569Z,61.88
2022-12-08T02:02:24.582Z,59.01
2022-12-08T02:03:24.508Z,63.04
2022-12-08T02:04:24.515Z,61.10
2022-12-08T02:05:24.520Z,61.65
2022-12-08T02:06:24.482Z,61.35
2022-12-08T02:07:24.474Z,61.66
2022-12-08T02:08:24.502Z,63.55
2022-12-08T02:09:24.471Z,59.24
2022-12-08T02:10:24.454Z,60.38
2022-12-08T02:11:24.480Z,58.11
2022-12-08T02:12:24.449Z,60.88
2022-12-08T02:13:24.453Z,61.35
2022-12-08T02:14:24.450Z,62.08
2022-12-08T02:15:24.434Z,60.68
2022-12-08T02:16:24.485Z,61.41
2022-12-08T02:17:24.446Z,65.14
2022-12-08T02:18:24.429Z,61.65
2022-12-08T02:19:31.968Z,61.38
2022-12-08T02:20:25.398Z,61.21
2022-12-08T02:21:24.402Z,62.00
2022-12-08T02:22:24.415Z,63.99
2022-12-08T02:23:24.387Z,63.95
2022-12-08T02:24:24.387Z,59.83
2022-12-08T02:25:24.391Z,63.56
2022-12-08T02:26:24.363Z,63.51
2022-12-08T02:27:24.378Z,62.24
2022-12-08T02:28:24.363Z,63.30
2022-12-08T02:29:24.368Z,62.04
2022-12-08T02:30:24.349Z,60.64
2022-12-08T02:31:24.380Z,58.08
2022-12-08T02:32:24.332Z,63.05
2022-12-08T02:33:24.359Z,63.61
2022-12-08T02:34:24.323Z,61.49
2022-12-08T02:35:24.311Z,59.91
2022-12-08T02:36:24.303Z,62.34
2022-12-08T02:37:24.303Z,59.13
2022-12-08T02:38:24.298Z,60.66
2022-12-08T02:39:24.318Z,58.77
2022-12-08T02:40:24.290Z,58.09
2022-12-08T02:41:24.295Z,62.90
2022-12-08T02:42:24.276Z,61.50
2022-12-08T02:43:24.290Z,58.67
2022-12-08T02:44:24.274Z,56.64
2022-12-08T02:45:24.325Z,59.67
2022-12-08T02:46:24.316Z,57.45
2022-12-08T02:47:24.264Z,59.95
2022-12-08T02:48:24.244Z,62.87
2022-12-08T02:49:24.262Z,62.56
2022-12-08T02:50:24.227Z,60.83
2022-12-08T02:51:24.218Z,60.25
2022-12-08T02:52:24.213Z,61.06
2022-12-08T02:53:24.213Z,56.73
2022-12-08T02:54:24.209Z,62.65
2022-12-08T02:55:24.218Z,63.91
2022-12-08T02:56:24.192Z,64.65
2022-12-08T02:57:24.194Z,64.77
2022-12-08T02:58:24.183Z,60.98
2022-12-08T02:59:24.184Z,59.18
2022-12-08T03:00:24.178Z,61.60
2022-12-08T03:01:24.226Z,60.33
2022-12-08T03:02:24.221Z,62.14
2022-12-08T03:03:24.151Z,62.70
2022-12-08T03:04:24.161Z,57.94
2022-12-08T03:05:24.134Z,59.15
2022-12-08T03:06:24.148Z,62.18
2022-12-08T03:07:24.135Z,61.61
2022-12-08T03:08:24.186Z,62.00
2022-12-08T03:09:24.127Z,58.49
2022-12-08T03:10:24.105Z,62.39
2022-12-08T03:11:24.120Z,60.44
2022-12-08T03:12:24.120Z,60.32
2022-12-08T03:13:24.092Z,63.25
2022-12-08T03:14:24.090Z,59.33
2022-12-08T03:15:24.088Z,58.71
2022-12-08T03:16:24.169Z,60.71
2022-12-08T03:17:24.087Z,62.11
2022-12-08T03:18:24.080Z,59.34
2022-12-08T03:19:24.056Z,58.67
2022-12-08T03:20:24.052Z,59.83
2022-12-08T03:21:24.050Z,61.54
2022-12-08T03:22:24.073Z,60.40
2022-12-08T03:23:24.033Z,58.14
2022-12-08T03:24:24.028Z,61.12
2022-12-08T03:25:24.031Z,63.65
2022-12-08T03:26:24.033Z,61.86
2022-12-08T03:27:24.019Z,60.63
2022-12-08T03:28:24.028Z,64.39
2022-12-08T03:29:24.004Z,63.15
2022-12-08T03:30:24.017Z,59.32
2022-12-08T03:31:24.027Z,58.51
2022-12-08T03:32:23.991Z,58.84
2022-12-08T03:33:23.988Z,64.63
2022-12-08T03:34:23.978Z,61.15
2022-12-08T03:35:23.995Z,60.87
2022-12-08T03:36:23.981Z,64.33
2022-12-08T03:37:23.956Z,58.60
2022-12-08T03:38:23.950Z,61.47
2022-12-08T03:39:23.965Z,62.19
2022-12-08T03:40:23.960Z,60.51
2022-12-08T03:41:23.945Z,62.69
2022-12-08T03:42:23.966Z,61.90
2022-12-08T03:43:23.929Z,63.67
2022-12-08T03:44:23.926Z,64.55
2022-12-08T03:45:23.940Z,62.88
2022-12-08T03:48:10.517Z,60.06
2022-12-08T03:49:10.507Z,62.80
2022-12-08T03:50:10.504Z,64.53
2022-12-08T03:51:10.512Z,62.03
2022-12-08T03:52:10.503Z,61.44
2022-12-08T03:53:10.503Z,63.07
2022-12-08T03:54:10.494Z,62.28
2022-12-08T03:55:10.547Z,60.34
2022-12-08T03:56:10.489Z,61.67
2022-12-08T03:57:10.465Z,64.50
2022-12-08T03:58:10.447Z,63.32
2022-12-08T03:59:10.459Z,61.58
2022-12-08T04:00:10.543Z,61.23
2022-12-08T04:01:10.431Z,61.47
2022-12-08T04:02:10.481Z,62.76
2022-12-08T04:03:10.495Z,58.73
2022-12-08T04:04:10.441Z,60.87
2022-12-08T04:05:10.490Z,64.92
2022-12-08T04:06:10.410Z,62.22
2022-12-08T04:07:10.398Z,63.90
2022-12-08T04:08:10.460Z,60.90
2022-12-08T04:09:10.418Z,58.70
2022-12-08T04:10:10.393Z,62.12
2022-12-08T04:11:10.385Z,63.82
2022-12-08T04:12:10.387Z,65.85
2022-12-08T04:13:10.382Z,65.17
2022-12-08T04:14:10.393Z,62.32
2022-12-08T04:15:10.374Z,65.84
2022-12-08T04:16:10.420Z,63.45
2022-12-08T04:17:10.366Z,65.50
2022-12-08T04:18:10.339Z,64.90
2022-12-08T04:19:10.337Z,62.63
2022-12-08T04:20:10.320Z,61.76
2022-12-08T04:21:10.335Z,62.45
2022-12-08T04:22:10.311Z,67.48
2022-12-08T04:23:12.103Z,64.61
2022-12-08T04:24:10.296Z,64.08
2022-12-08T04:25:10.294Z,63.52
2022-12-08T04:26:10.293Z,63.50
2022-12-08T04:27:10.299Z,63.97
2022-12-08T04:28:10.295Z,62.70
2022-12-08T04:29:10.334Z,64.85
2022-12-08T04:30:10.276Z,63.67
2022-12-08T04:31:10.350Z,63.78
2022-12-08T04:32:10.268Z,64.43
2022-12-08T04:33:10.257Z,63.99
2022-12-08T04:34:10.254Z,63.43
2022-12-08T04:35:10.257Z,63.91
2022-12-08T04:36:10.243Z,65.15
2022-12-08T04:37:10.232Z,64.70
2022-12-08T04:38:10.227Z,65.23
2022-12-08T04:39:10.223Z,64.43
2022-12-08T04:40:10.239Z,63.69
2022-12-08T04:41:10.211Z,64.51
2022-12-08T04:42:10.206Z,66.57
2022-12-08T04:43:10.197Z,64.77
2022-12-08T04:44:10.189Z,62.65
2022-12-08T04:45:10.186Z,64.49
2022-12-08T04:46:10.243Z,64.34
2022-12-08T04:47:10.228Z,64.98
2022-12-08T04:48:10.168Z,65.53
2022-12-08T04:49:10.163Z,63.40
2022-12-08T04:50:10.170Z,62.21
2022-12-08T04:51:10.153Z,63.86
2022-12-08T04:52:10.168Z,65.75
2022-12-08T04:53:10.149Z,62.61
2022-12-08T04:54:10.158Z,64.83
2022-12-08T04:55:10.134Z,66.19
2022-12-08T04:56:10.129Z,62.42
2022-12-08T04:57:10.134Z,63.09
2022-12-08T04:58:10.116Z,62.82
2022-12-08T04:59:10.110Z,64.37
2022-12-08T05:00:10.099Z,63.80
2022-12-08T05:01:10.138Z,64.37
2022-12-08T05:02:10.280Z,67.10
2022-12-08T05:03:10.099Z,63.59
2022-12-08T05:04:10.099Z,62.88
2022-12-08T05:05:10.074Z,65.56
2022-12-08T05:06:10.072Z,64.33
2022-12-08T05:07:10.061Z,64.08
2022-12-08T05:08:10.110Z,65.86
2022-12-08T05:09:10.048Z,65.42
2022-12-08T05:10:10.062Z,62.68
2022-12-08T05:11:10.048Z,63.69
2022-12-08T05:12:10.034Z,66.54
2022-12-08T05:13:10.023Z,63.87
2022-12-08T05:14:10.018Z,65.12
2022-12-08T05:15:10.025Z,66.05
2022-12-08T05:16:10.075Z,65.87
2022-12-08T05:17:10.083Z,66.65
2022-12-08T05:18:10.034Z,65.12
2022-12-08T05:19:09.987Z,65.03
2022-12-08T05:20:09.996Z,65.90
2022-12-08T05:21:09.984Z,66.13
2022-12-08T05:22:09.987Z,66.31
2022-12-08T05:23:09.986Z,66.54
2022-12-08T05:24:09.970Z,64.74
2022-12-08T05:25:09.962Z,66.86
2022-12-08T05:26:09.976Z,67.58
2022-12-08T05:27:09.957Z,67.29
2022-12-08T05:28:39.791Z,66.67
2022-12-08T05:29:10.937Z,64.96
2022-12-08T05:30:09.931Z,65.53
2022-12-08T05:31:09.979Z,66.08
2022-12-08T05:32:09.957Z,67.60
2022-12-08T05:33:09.915Z,67.18
2022-12-08T05:34:09.933Z,66.17
2022-12-08T05:35:09.915Z,65.56
2022-12-08T05:36:09.901Z,66.91
2022-12-08T05:37:09.915Z,67.36
2022-12-08T05:38:09.891Z,63.77
2022-12-08T05:39:09.885Z,64.45
2022-12-08T05:40:09.877Z,66.88
2022-12-08T05:41:09.870Z,67.89
2022-12-08T05:42:09.866Z,64.31
2022-12-08T05:43:09.877Z,66.30
2022-12-08T05:44:09.850Z,66.54
2022-12-08T05:45:09.850Z,62.88
2022-12-08T05:46:09.858Z,64.08
2022-12-08T05:47:09.849Z,65.54
2022-12-08T05:48:09.830Z,65.64
2022-12-08T05:49:09.847Z,66.34
2022-12-08T05:50:09.818Z,67.05
2022-12-08T05:51:09.814Z,67.19
2022-12-08T05:52:09.811Z,64.68
2022-12-08T05:53:09.802Z,66.55
2022-12-08T05:54:09.792Z,66.66
2022-12-08T05:55:09.843Z,65.88
2022-12-08T05:56:11.125Z,66.09
2022-12-08T05:57:09.779Z,66.93
2022-12-08T05:58:09.773Z,66.54
2022-12-08T05:59:09.763Z,65.86
2022-12-08T06:00:09.778Z,64.06
2022-12-08T06:01:09.770Z,65.01
2022-12-08T06:02:09.867Z,66.98
2022-12-08T06:03:09.790Z,65.80
2022-12-08T06:04:09.745Z,64.80
2022-12-08T06:05:09.732Z,64.97
2022-12-08T06:06:09.732Z,64.55
2022-12-08T06:07:15.792Z,68.67
2022-12-08T06:08:10.782Z,65.98
2022-12-08T06:09:09.713Z,65.09
2022-12-08T06:10:09.712Z,66.92
2022-12-08T06:11:09.699Z,65.38
2022-12-08T06:12:09.698Z,65.90
2022-12-08T06:13:09.708Z,62.96
2022-12-08T06:14:09.701Z,64.38
2022-12-08T06:15:09.683Z,66.30
2022-12-08T06:16:09.714Z,65.78
2022-12-08T06:17:09.735Z,63.95
2022-12-08T06:18:09.667Z,67.35
2022-12-08T06:19:09.679Z,66.15
2022-12-08T06:20:09.663Z,66.42
2022-12-08T06:21:09.647Z,66.17
2022-12-08T06:22:09.648Z,68.47
2022-12-08T06:23:09.655Z,64.92
2022-12-08T06:24:09.666Z,64.31
2022-12-08T06:25:10.258Z,66.67
2022-12-08T06:26:09.629Z,61.16
2022-12-08T06:27:09.623Z,61.77
2022-12-08T06:28:09.615Z,68.24
2022-12-08T06:29:09.612Z,68.54
2022-12-08T06:30:09.620Z,66.36
2022-12-08T06:31:09.595Z,69.09
2022-12-08T06:32:09.687Z,69.81
2022-12-08T06:33:09.584Z,66.18
2022-12-08T06:34:09.586Z,65.96
2022-12-08T06:35:09.584Z,67.22
2022-12-08T06:36:09.600Z,67.24
2022-12-08T06:37:09.568Z,64.13
2022-12-08T06:38:09.590Z,65.76
2022-12-08T06:39:09.555Z,67.08
2022-12-08T06:40:09.559Z,65.72
2022-12-08T06:41:09.553Z,64.15
2022-12-08T06:42:09.548Z,65.31
2022-12-08T06:43:09.539Z,66.47
2022-12-08T06:44:09.549Z,65.28
2022-12-08T06:45:09.533Z,64.47
2022-12-08T06:46:09.554Z,65.17
2022-12-08T06:47:09.515Z,62.59
2022-12-08T06:48:09.528Z,63.99
2022-12-08T06:49:09.502Z,64.30
2022-12-08T06:50:09.497Z,61.61
2022-12-08T06:51:09.490Z,62.18
2022-12-08T06:52:09.489Z,61.24
2022-12-08T06:53:09.526Z,62.71
2022-12-08T06:54:09.480Z,63.13
2022-12-08T06:55:09.469Z,62.85
2022-12-08T06:56:09.468Z,62.34
2022-12-08T06:57:09.460Z,62.01
2022-12-08T06:58:09.460Z,62.80
2022-12-08T06:59:09.471Z,64.67
2022-12-08T07:00:09.461Z,63.02
2022-12-08T07:01:09.495Z,64.58
2022-12-08T07:02:09.648Z,64.70
2022-12-08T07:03:09.435Z,62.85
2022-12-08T07:04:09.426Z,62.75
2022-12-08T07:05:09.436Z,64.81
2022-12-08T07:06:09.479Z,63.00
2022-12-08T07:07:09.427Z,65.71
2022-12-08T07:08:09.529Z,64.90
2022-12-08T07:09:09.391Z,62.96
2022-12-08T07:10:09.396Z,63.85
2022-12-08T07:11:09.387Z,63.92
2022-12-08T07:12:09.385Z,63.17
2022-12-08T07:13:09.396Z,65.07
2022-12-08T07:14:09.369Z,65.47
2022-12-08T07:15:09.364Z,63.63
2022-12-08T07:16:09.389Z,62.90
2022-12-08T07:17:09.442Z,64.69
2022-12-08T07:18:16.371Z,64.59
2022-12-08T07:19:09.352Z,64.28
2022-12-08T07:20:09.343Z,63.93
2022-12-08T07:21:09.350Z,63.71
2022-12-08T07:22:09.356Z,63.49
2022-12-08T07:23:09.332Z,63.40
2022-12-08T07:24:09.333Z,65.94
2022-12-08T07:25:09.323Z,65.79
2022-12-08T07:26:09.314Z,65.91
2022-12-08T07:27:09.300Z,67.00
2022-12-08T07:28:09.320Z,65.76
2022-12-08T07:29:09.292Z,65.91
2022-12-08T07:30:09.281Z,65.37
2022-12-08T07:31:09.388Z,67.58
2022-12-08T07:32:09.279Z,64.82
2022-12-08T07:33:09.285Z,63.96
2022-12-08T07:34:09.266Z,64.95
2022-12-08T07:35:09.256Z,64.74
2022-12-08T07:36:09.251Z,63.93
2022-12-08T07:37:09.243Z,64.92
2022-12-08T07:38:09.256Z,65.41
2022-12-08T07:39:09.248Z,66.15
2022-12-08T07:40:09.230Z,64.68
2022-12-08T07:41:09.217Z,65.42
2022-12-08T07:42:09.289Z,65.23
2022-12-08T07:43:09.210Z,64.40
2022-12-08T07:44:09.220Z,65.76
2022-12-08T07:45:09.205Z,65.02
2022-12-08T07:46:09.251Z,65.60
2022-12-08T07:47:09.190Z,65.59
2022-12-08T07:48:09.216Z,65.37
2022-12-08T07:49:09.187Z,64.92
2022-12-08T07:50:09.171Z,65.94
2022-12-08T07:51:09.157Z,64.89
2022-12-08T07:52:09.157Z,65.51
2022-12-08T07:53:09.141Z,65.00
2022-12-08T07:54:09.175Z,64.81
2022-12-08T07:55:09.147Z,65.19
2022-12-08T07:56:09.133Z,66.66
2022-12-08T07:57:09.124Z,65.63
2022-12-08T07:58:09.122Z,65.50
2022-12-08T07:59:09.117Z,65.11
2022-12-08T08:00:09.145Z,64.63
2022-12-08T08:01:09.158Z,64.50
2022-12-08T08:02:23.718Z,66.45
2022-12-08T08:03:10.126Z,64.58
2022-12-08T08:04:09.131Z,64.50
2022-12-08T08:05:09.223Z,65.61
2022-12-08T08:06:09.099Z,66.60
2022-12-08T08:07:09.082Z,64.78
2022-12-08T08:08:09.134Z,65.28
2022-12-08T08:09:09.059Z,64.27
2022-12-08T08:10:09.064Z,64.48
2022-12-08T08:11:14.572Z,64.45
2022-12-08T08:12:30.275Z,64.92
2022-12-08T08:13:10.031Z,65.33
2022-12-08T08:14:09.031Z,65.65
2022-12-08T08:15:09.026Z,65.23
2022-12-08T08:16:09.159Z,64.61
2022-12-08T08:17:09.264Z,64.78
2022-12-08T08:18:09.057Z,65.61
2022-12-08T08:19:09.026Z,66.38
2022-12-08T08:20:09.018Z,63.80
2022-12-08T08:21:43.277Z,63.89
2022-12-08T08:22:09.989Z,67.03
2022-12-08T08:23:08.986Z,64.91
2022-12-08T08:24:09.006Z,66.45
2022-12-08T08:25:08.996Z,66.48
2022-12-08T08:26:08.974Z,65.49
2022-12-08T08:27:08.965Z,65.96
2022-12-08T08:28:08.969Z,66.02
2022-12-08T08:29:08.953Z,65.27
2022-12-08T08:30:08.949Z,65.91
2022-12-08T08:31:09.017Z,65.50
2022-12-08T08:32:08.933Z,64.95
2022-12-08T08:33:08.952Z,65.18
2022-12-08T08:34:08.930Z,65.26
2022-12-08T08:35:08.928Z,65.09
2022-12-08T08:36:08.930Z,66.92
2022-12-08T08:37:08.962Z,64.15
2022-12-08T08:38:08.902Z,65.85
2022-12-08T08:39:08.911Z,66.32
2022-12-08T08:40:08.892Z,67.75
2022-12-08T08:41:08.878Z,65.51
2022-12-08T08:42:08.887Z,66.65
2022-12-08T08:43:08.901Z,66.19
2022-12-08T08:44:08.866Z,65.96
2022-12-08T08:45:08.873Z,64.81
2022-12-08T08:46:09.008Z,66.87
2022-12-08T08:47:08.848Z,65.94
2022-12-08T08:48:08.848Z,64.72
2022-12-08T08:49:08.867Z,66.33
2022-12-08T08:50:09.195Z,65.98
2022-12-08T08:51:08.834Z,65.91
2022-12-08T08:52:08.846Z,66.02
2022-12-08T08:53:08.857Z,66.27
2022-12-08T08:54:08.830Z,67.02
2022-12-08T08:55:08.842Z,67.19
2022-12-08T08:56:08.802Z,65.14
2022-12-08T08:57:08.805Z,66.40
2022-12-08T08:58:08.794Z,67.12
2022-12-08T08:59:08.785Z,66.01
2022-12-08T09:00:08.795Z,65.01
2022-12-08T09:01:08.778Z,66.18
2022-12-08T09:02:08.831Z,65.54
2022-12-08T09:03:08.777Z,65.76
2022-12-08T09:04:08.831Z,66.31
2022-12-08T09:05:08.883Z,63.93
2022-12-08T09:06:08.880Z,64.40
2022-12-08T09:07:08.777Z,67.44
2022-12-08T09:08:08.801Z,67.22
2022-12-08T09:09:08.730Z,64.41
2022-12-08T09:10:09.009Z,65.54
2022-12-08T09:11:08.726Z,66.63
2022-12-08T09:12:08.734Z,66.11
2022-12-08T09:13:08.730Z,65.49
2022-12-08T09:14:08.716Z,66.61
2022-12-08T09:15:08.707Z,64.96
2022-12-08T09:16:08.825Z,64.43
2022-12-08T09:17:08.731Z,65.95
2022-12-08T09:18:08.711Z,64.33
2022-12-08T09:19:08.700Z,65.94
2022-12-08T09:20:08.698Z,63.25
2022-12-08T09:21:08.674Z,63.36
2022-12-08T09:22:08.672Z,65.53
2022-12-08T09:23:08.664Z,67.09
2022-12-08T09:24:08.703Z,65.78
2022-12-08T09:25:08.653Z,65.83
2022-12-08T09:26:08.652Z,65.32
2022-12-08T09:27:08.638Z,66.73
2022-12-08T09:28:08.637Z,67.02
2022-12-08T09:29:08.627Z,66.81
2022-12-08T09:30:08.643Z,65.80
2022-12-08T09:31:08.654Z,65.85
2022-12-08T09:32:08.613Z,66.27
2022-12-08T09:33:08.653Z,64.92
2022-12-08T09:34:08.604Z,64.71
2022-12-08T09:35:08.610Z,65.89
2022-12-08T09:36:08.588Z,66.54
2022-12-08T09:37:08.601Z,65.84
2022-12-08T09:38:08.604Z,66.41
2022-12-08T09:39:08.567Z,65.48
2022-12-08T09:40:08.580Z,64.79
2022-12-08T09:41:08.565Z,65.92
2022-12-08T09:42:08.548Z,67.72
2022-12-08T09:43:08.550Z,66.07
2022-12-08T09:44:08.533Z,65.26
2022-12-08T09:45:08.523Z,66.61
2022-12-08T09:46:08.582Z,66.72
2022-12-08T09:47:08.578Z,66.34
2022-12-08T09:48:08.512Z,65.90
2022-12-08T09:49:08.501Z,66.46
2022-12-08T09:50:08.803Z,65.13
2022-12-08T09:51:08.491Z,66.33
2022-12-08T09:52:08.485Z,66.76
2022-12-08T09:53:08.485Z,64.84
2022-12-08T09:54:08.490Z,65.80
2022-12-08T09:55:08.465Z,65.35
2022-12-08T09:56:08.483Z,66.68
2022-12-08T09:57:08.455Z,65.66
2022-12-08T09:58:08.449Z,65.92
2022-12-08T09:59:08.452Z,66.17
2022-12-08T10:00:08.670Z,66.01
2022-12-08T10:01:08.429Z,64.66
2022-12-08T10:02:08.509Z,65.55
2022-12-08T10:03:11.214Z,66.02
2022-12-08T10:04:09.418Z,66.39
2022-12-08T10:05:08.463Z,65.42
2022-12-08T10:06:08.406Z,65.96
2022-12-08T10:07:08.412Z,65.00
2022-12-08T10:08:08.465Z,65.94
2022-12-08T10:09:11.174Z,64.78
2022-12-08T10:10:08.469Z,65.30
2022-12-08T10:11:08.396Z,65.01
2022-12-08T10:12:08.362Z,64.42
2022-12-08T10:13:08.363Z,65.26
2022-12-08T10:14:08.362Z,65.37
2022-12-08T10:15:08.351Z,65.91
2022-12-08T10:16:08.476Z,65.94
2022-12-08T10:17:08.409Z,66.57
2022-12-08T10:18:08.345Z,66.77
2022-12-08T10:19:08.321Z,65.44
2022-12-08T10:20:08.426Z,66.25
2022-12-08T10:21:08.331Z,65.56
2022-12-08T10:22:08.307Z,64.90
2022-12-08T10:23:08.308Z,66.11
2022-12-08T10:24:08.296Z,64.81
2022-12-08T10:25:08.294Z,65.04
2022-12-08T10:26:08.307Z,63.71
2022-12-08T10:27:08.278Z,64.80
2022-12-08T10:28:08.271Z,65.46
2022-12-08T10:29:08.270Z,67.24
2022-12-08T10:30:08.289Z,65.36
2022-12-08T10:31:08.278Z,66.08
2022-12-08T10:32:08.263Z,66.34
2022-12-08T10:33:08.245Z,66.13
2022-12-08T10:34:08.249Z,67.25
2022-12-08T10:35:08.226Z,65.08
2022-12-08T10:36:08.244Z,64.98
2022-12-08T10:37:08.211Z,65.99
2022-12-08T10:38:08.216Z,64.80
2022-12-08T10:39:08.223Z,65.11
2022-12-08T10:40:08.454Z,65.97
2022-12-08T10:41:08.190Z,66.72
2022-12-08T10:42:08.205Z,63.44
2022-12-08T10:43:08.214Z,63.10
2022-12-08T10:44:08.177Z,64.47
2022-12-08T10:45:08.179Z,64.28
2022-12-08T10:46:08.236Z,64.24
2022-12-08T10:47:08.185Z,65.28
2022-12-08T10:48:08.152Z,65.63
2022-12-08T10:49:08.167Z,66.20
2022-12-08T10:50:08.330Z,65.67
2022-12-08T10:51:08.129Z,63.99
2022-12-08T10:52:08.134Z,64.78
2022-12-08T10:53:08.127Z,65.72
2022-12-08T10:54:08.118Z,65.74
2022-12-08T10:55:08.141Z,66.45
2022-12-08T10:56:08.115Z,65.44
2022-12-08T10:57:08.110Z,65.48
2022-12-08T10:58:08.131Z,66.78
2022-12-08T10:59:08.093Z,66.27
2022-12-08T11:00:13.659Z,67.10
2022-12-08T11:01:09.094Z,67.40
2022-12-08T11:02:08.154Z,65.42
2022-12-08T11:03:08.166Z,68.73
2022-12-08T11:04:08.083Z,65.51
2022-12-08T11:05:08.058Z,64.97
2022-12-08T11:06:10.963Z,63.63
2022-12-08T11:07:08.089Z,67.07
2022-12-08T11:08:08.126Z,64.90
2022-12-08T11:09:08.029Z,62.80
2022-12-08T11:10:08.222Z,64.29
2022-12-08T11:11:08.038Z,64.81
2022-12-08T11:12:08.016Z,67.01
2022-12-08T11:13:08.048Z,66.55
2022-12-08T11:14:08.010Z,64.92
2022-12-08T11:15:07.994Z,64.41
2022-12-08T11:16:08.035Z,65.05
2022-12-08T11:17:07.999Z,64.80
2022-12-08T11:18:08.008Z,65.40
2022-12-08T11:19:07.985Z,67.84
2022-12-08T11:20:08.377Z,66.15
2022-12-08T11:21:07.959Z,65.80
2022-12-08T11:22:07.973Z,62.07
2022-12-08T11:23:07.957Z,64.06
2022-12-08T11:24:07.953Z,64.79
2022-12-08T11:25:07.937Z,64.18
2022-12-08T11:26:07.948Z,62.69
2022-12-08T11:27:07.928Z,64.41
2022-12-08T11:28:07.962Z,64.00
2022-12-08T11:29:07.913Z,65.27
2022-12-08T11:30:13.935Z,63.61
2022-12-08T11:31:08.954Z,63.59
2022-12-08T11:32:07.937Z,65.05
2022-12-08T11:33:07.886Z,65.25
2022-12-08T11:34:07.900Z,63.43
2022-12-08T11:35:07.873Z,62.65
2022-12-08T11:36:07.867Z,65.60
2022-12-08T11:37:07.880Z,63.30
2022-12-08T11:38:20.998Z,63.20
2022-12-08T11:39:08.864Z,63.77
2022-12-08T11:40:08.146Z,64.58
2022-12-08T11:41:13.987Z,65.10
2022-12-08T11:42:07.828Z,68.03
2022-12-08T11:43:07.819Z,63.23
2022-12-08T11:44:07.812Z,64.77
2022-12-08T11:45:07.979Z,65.95
2022-12-08T11:46:07.900Z,64.24
2022-12-08T11:47:07.790Z,63.97
2022-12-08T11:48:07.797Z,64.65
2022-12-08T11:49:07.797Z,64.18
2022-12-08T11:50:07.889Z,63.40
2022-12-08T11:51:07.781Z,63.96
2022-12-08T11:52:07.764Z,63.12
2022-12-08T11:53:07.754Z,63.65
2022-12-08T11:54:07.767Z,63.94
2022-12-08T11:55:07.745Z,64.45
2022-12-08T11:56:07.796Z,64.29
2022-12-08T11:57:07.741Z,65.11
2022-12-08T11:58:07.766Z,64.16
2022-12-08T11:59:07.719Z,62.98
2022-12-08T12:00:07.964Z,64.40
2022-12-08T12:01:07.705Z,64.45
2022-12-08T12:02:07.823Z,64.05
2022-12-08T12:03:07.771Z,64.54
2022-12-08T12:04:07.712Z,64.52
2022-12-08T12:05:07.686Z,65.22
2022-12-08T12:07:07.592Z,64.84
2022-12-08T12:07:08.669Z,64.03
2022-12-08T12:08:07.783Z,65.10
2022-12-08T12:09:07.660Z,64.00
2022-12-08T12:10:08.005Z,64.02
2022-12-08T12:11:07.651Z,64.50
2022-12-08T12:12:07.640Z,63.94
2022-12-08T12:13:07.635Z,65.17
2022-12-08T12:14:07.649Z,63.98
2022-12-08T12:15:07.616Z,63.71
2022-12-08T12:16:07.615Z,63.25
2022-12-08T12:17:07.665Z,63.27
2022-12-08T12:18:11.929Z,64.69
2022-12-08T12:19:08.616Z,63.93
2022-12-08T12:20:07.905Z,63.56
2022-12-08T12:21:07.669Z,64.75
2022-12-08T12:22:07.592Z,63.14
2022-12-08T12:23:07.579Z,65.29
2022-12-08T12:24:07.576Z,64.19
2022-12-08T12:25:07.585Z,64.99
2022-12-08T12:26:07.578Z,65.13
2022-12-08T12:27:07.566Z,64.25
2022-12-08T12:28:07.556Z,63.03
2022-12-08T12:29:07.539Z,64.34
2022-12-08T12:30:07.681Z,64.19
2022-12-08T12:31:07.589Z,64.56
2022-12-08T12:32:07.539Z,65.31
2022-12-08T12:33:07.524Z,64.82
2022-12-08T12:34:07.559Z,64.52
2022-12-08T12:35:07.530Z,65.28
2022-12-08T12:36:07.537Z,66.10
2022-12-08T12:37:07.504Z,65.45
2022-12-08T12:38:07.510Z,64.75
2022-12-08T12:39:07.497Z,65.12
2022-12-08T12:40:07.958Z,65.35
2022-12-08T12:41:07.477Z,64.00
2022-12-08T12:42:07.509Z,64.70
2022-12-08T12:43:07.468Z,64.58
2022-12-08T12:44:07.465Z,64.85
2022-12-08T12:45:07.458Z,66.26
2022-12-08T12:46:07.535Z,64.78
2022-12-08T12:47:07.442Z,65.66
2022-12-08T12:48:07.436Z,64.61
2022-12-08T12:49:07.434Z,65.04
2022-12-08T12:50:07.708Z,64.94
2022-12-08T12:51:07.419Z,64.82
2022-12-08T12:52:07.421Z,65.68
2022-12-08T12:53:13.620Z,66.80
2022-12-08T12:54:08.403Z,67.23